Meath Environmental Platform

Observations for Trim Market St

Time AQI Temp °C Hum % Pres Pa CO μg/m³ H₂S μg/m³ NO μg/m³ NO₂ μg/m³ O₃ μg/m³ SO₂ μg/m³ PM1 μg/m³ PM2.5 μg/m³ PM10 μg/m³
Monday 24 August 2026
21:56 3 17 63 57,559 0.2 0 1.21 25.8 57.76 0 4.99 7.35 10.87
21:55 3 17 63 57,567 0.2 0 1.25 27.5 55.56 0 4.99 6.86 9.54
21:53 3 17.1 63 57,586 0.2 0 1.18 24.06 58.41 0 4.99 8.85 12.22
21:43 3 17.3 62 57,648 0.18 0 1.18 25.6 58.32 0 4.28 7.4 10.9
21:42 3 17.3 62 57,654 0.22 0 1.28 31.84 53.77 0 4.28 8.4 13.59
21:41 3 17.3 62 57,658 0.35 0 1.25 35.68 44.2 0 4.99 8.41 13.6
21:40 3 17.3 62 57,663 0.27 0 1.28 44.35 37.02 0 4.99 7.42 11.58
21:39 3 17.4 62 57,674 0.19 0 1.22 31.78 52.38 0 4.28 6.92 9.56
21:38 3 17.4 62 57,679 0.2 0 1.26 43.9 33.81 0 4.99 7.42 12.26
21:37 3 17.4 62 57,682 0.2 0 1.22 38.13 42.08 0 4.28 7.43 12.94
21:36 3 17.4 62 57,691 0.2 0 1.26 35.3 47.18 0 4.99 8.92 12.26
21:35 3 17.5 62 57,697 0.19 0 1.12 30.67 56.15 0 6.41 9.92 17.68
21:34 3 17.5 62 57,705 0.2 0 1.26 34.54 52.37 0 3.56 6.44 9.56
21:33 3 17.5 61 57,712 0.21 0 1.2 31.73 53.36 0 4.28 6.45 9.56
21:32 3 17.5 61 57,720 0.22 0 1.24 31.38 56.51 0 4.28 7.95 11.6
21:31 3 17.5 61 57,727 0.31 0 1.13 47.87 34.89 0 3.56 6.96 10.25
21:30 3 17.5 61 57,736 0.24 0 1.23 64.85 9.7 0 3.56 5.47 7.53
21:27 4 17.6 61 57,743 0.17 0 1.19 28.53 64.73 0 4.28 6.48 10.25
21:26 4 17.6 61 57,748 0.17 0 1.19 31.33 57.41 0 2.85 5.48 11.62
21:25 4 17.6 61 57,754 0.18 0 1.18 40.55 47.21 0 4.28 9.48 14.34